sensor_id;sensor_type;location;lat;lon;timestamp;temperature;humidity
57652;DHT22;43480;53.116;6.734;2022-12-18T00:01:19;-2.90;99.90
57652;DHT22;43480;53.116;6.734;2022-12-18T00:03:45;-2.90;99.90
57652;DHT22;43480;53.116;6.734;2022-12-18T00:06:11;-2.90;99.90
57652;DHT22;43480;53.116;6.734;2022-12-18T00:08:37;-2.90;99.90
57652;DHT22;43480;53.116;6.734;2022-12-18T00:11:03;-2.90;99.90
57652;DHT22;43480;53.116;6.734;2022-12-18T00:13:29;-2.90;99.90
57652;DHT22;43480;53.116;6.734;2022-12-18T00:15:54;-2.90;99.90
57652;DHT22;43480;53.116;6.734;2022-12-18T00:18:20;-2.90;99.90
57652;DHT22;43480;53.116;6.734;2022-12-18T00:20:45;-2.90;99.90
57652;DHT22;43480;53.116;6.734;2022-12-18T00:23:11;-2.90;99.90
57652;DHT22;43480;53.116;6.734;2022-12-18T00:25:37;-2.90;99.90
57652;DHT22;43480;53.116;6.734;2022-12-18T00:28:03;-2.90;99.90
57652;DHT22;43480;53.116;6.734;2022-12-18T00:30:29;-2.90;99.90
57652;DHT22;43480;53.116;6.734;2022-12-18T00:32:54;-3.00;99.90
57652;DHT22;43480;53.116;6.734;2022-12-18T00:35:20;-2.90;99.90
57652;DHT22;43480;53.116;6.734;2022-12-18T00:37:46;-3.00;99.90
57652;DHT22;43480;53.116;6.734;2022-12-18T00:40:11;-3.00;99.90
57652;DHT22;43480;53.116;6.734;2022-12-18T00:42:37;-3.00;99.90
57652;DHT22;43480;53.116;6.734;2022-12-18T00:45:25;-3.00;99.90
57652;DHT22;43480;53.116;6.734;2022-12-18T00:47:51;-3.00;99.90
57652;DHT22;43480;53.116;6.734;2022-12-18T00:50:16;-3.10;99.90
57652;DHT22;43480;53.116;6.734;2022-12-18T00:52:42;-3.10;99.90
57652;DHT22;43480;53.116;6.734;2022-12-18T00:55:08;-3.20;99.90
57652;DHT22;43480;53.116;6.734;2022-12-18T00:57:34;-3.20;99.90
57652;DHT22;43480;53.116;6.734;2022-12-18T00:59:59;-3.20;99.90
57652;DHT22;43480;53.116;6.734;2022-12-18T01:02:25;-3.20;99.90
57652;DHT22;43480;53.116;6.734;2022-12-18T01:04:50;-3.30;99.90
57652;DHT22;43480;53.116;6.734;2022-12-18T01:07:16;-3.30;99.90
57652;DHT22;43480;53.116;6.734;2022-12-18T01:09:41;-3.30;99.90
57652;DHT22;43480;53.116;6.734;2022-12-18T01:12:07;-3.30;99.90
57652;DHT22;43480;53.116;6.734;2022-12-18T01:14:32;-3.40;99.90
57652;DHT22;43480;53.116;6.734;2022-12-18T01:16:58;-3.40;99.90
57652;DHT22;43480;53.116;6.734;2022-12-18T01:19:24;-3.40;99.90
57652;DHT22;43480;53.116;6.734;2022-12-18T01:21:49;-3.30;99.90
57652;DHT22;43480;53.116;6.734;2022-12-18T01:24:15;-3.40;99.90
57652;DHT22;43480;53.116;6.734;2022-12-18T01:26:40;-3.40;99.90
57652;DHT22;43480;53.116;6.734;2022-12-18T01:29:06;-3.40;99.90
57652;DHT22;43480;53.116;6.734;2022-12-18T01:31:32;-3.40;99.90
57652;DHT22;43480;53.116;6.734;2022-12-18T01:34:00;-3.40;99.90
57652;DHT22;43480;53.116;6.734;2022-12-18T01:36:29;-3.50;99.90
57652;DHT22;43480;53.116;6.734;2022-12-18T01:38:55;-3.50;99.90
57652;DHT22;43480;53.116;6.734;2022-12-18T01:41:25;-3.60;99.90
57652;DHT22;43480;53.116;6.734;2022-12-18T01:43:53;-3.60;99.90
57652;DHT22;43480;53.116;6.734;2022-12-18T01:46:19;-3.70;99.90
57652;DHT22;43480;53.116;6.734;2022-12-18T01:48:49;-3.70;99.90
57652;DHT22;43480;53.116;6.734;2022-12-18T01:51:16;-3.80;99.90
57652;DHT22;43480;53.116;6.734;2022-12-18T01:53:42;-3.80;99.90
57652;DHT22;43480;53.116;6.734;2022-12-18T01:56:11;-3.80;99.90
57652;DHT22;43480;53.116;6.734;2022-12-18T02:01:19;-3.80;99.90
57652;DHT22;43480;53.116;6.734;2022-12-18T02:03:45;-3.80;99.90
57652;DHT22;43480;53.116;6.734;2022-12-18T02:06:21;-3.70;99.90
57652;DHT22;43480;53.116;6.734;2022-12-18T02:08:52;-3.80;99.90
57652;DHT22;43480;53.116;6.734;2022-12-18T02:14:01;-3.80;99.90
57652;DHT22;43480;53.116;6.734;2022-12-18T02:16:40;-3.80;99.90
57652;DHT22;43480;53.116;6.734;2022-12-18T02:22:00;-3.80;99.90
57652;DHT22;43480;53.116;6.734;2022-12-18T02:24:29;-3.90;99.90
57652;DHT22;43480;53.116;6.734;2022-12-18T02:26:59;-3.90;99.90
57652;DHT22;43480;53.116;6.734;2022-12-18T02:29:29;-4.00;99.90
57652;DHT22;43480;53.116;6.734;2022-12-18T02:31:59;-4.00;99.90
57652;DHT22;43480;53.116;6.734;2022-12-18T02:34:26;-4.10;99.90
57652;DHT22;43480;53.116;6.734;2022-12-18T02:36:53;-4.10;99.90
57652;DHT22;43480;53.116;6.734;2022-12-18T02:39:19;-4.20;99.90
57652;DHT22;43480;53.116;6.734;2022-12-18T02:41:46;-4.20;99.90
57652;DHT22;43480;53.116;6.734;2022-12-18T02:44:12;-4.30;99.90
57652;DHT22;43480;53.116;6.734;2022-12-18T02:46:42;-4.30;99.90
57652;DHT22;43480;53.116;6.734;2022-12-18T02:49:21;-4.40;99.90
57652;DHT22;43480;53.116;6.734;2022-12-18T02:51:50;-4.40;99.90
57652;DHT22;43480;53.116;6.734;2022-12-18T02:54:26;-4.50;99.90
57652;DHT22;43480;53.116;6.734;2022-12-18T02:56:55;-4.50;99.90
57652;DHT22;43480;53.116;6.734;2022-12-18T02:59:40;-4.60;99.90
57652;DHT22;43480;53.116;6.734;2022-12-18T03:02:09;-4.60;99.90
57652;DHT22;43480;53.116;6.734;2022-12-18T03:07:08;-4.80;99.90
57652;DHT22;43480;53.116;6.734;2022-12-18T03:09:35;-4.80;99.90
57652;DHT22;43480;53.116;6.734;2022-12-18T03:12:04;-4.80;99.90
57652;DHT22;43480;53.116;6.734;2022-12-18T03:14:55;-4.80;99.90
57652;DHT22;43480;53.116;6.734;2022-12-18T03:17:23;-4.90;99.90
57652;DHT22;43480;53.116;6.734;2022-12-18T03:19:51;-4.90;99.90
57652;DHT22;43480;53.116;6.734;2022-12-18T03:22:17;-5.00;99.90
57652;DHT22;43480;53.116;6.734;2022-12-18T03:24:44;-5.00;99.90
57652;DHT22;43480;53.116;6.734;2022-12-18T03:27:12;-5.00;99.90
57652;DHT22;43480;53.116;6.734;2022-12-18T03:29:39;-5.00;99.90
57652;DHT22;43480;53.116;6.734;2022-12-18T03:32:06;-5.00;99.90
57652;DHT22;43480;53.116;6.734;2022-12-18T03:34:33;-5.00;99.90
57652;DHT22;43480;53.116;6.734;2022-12-18T03:36:59;-5.00;99.90
57652;DHT22;43480;53.116;6.734;2022-12-18T03:39:27;-5.00;99.90
57652;DHT22;43480;53.116;6.734;2022-12-18T03:44:40;-5.00;99.90
57652;DHT22;43480;53.116;6.734;2022-12-18T03:49:38;-5.10;99.90
57652;DHT22;43480;53.116;6.734;2022-12-18T03:52:18;-5.10;99.90
57652;DHT22;43480;53.116;6.734;2022-12-18T03:54:44;-5.10;99.90
57652;DHT22;43480;53.116;6.734;2022-12-18T03:57:15;-5.10;99.90
57652;DHT22;43480;53.116;6.734;2022-12-18T03:59:43;-5.20;99.90
57652;DHT22;43480;53.116;6.734;2022-12-18T04:02:09;-5.20;99.90
57652;DHT22;43480;53.116;6.734;2022-12-18T04:04:35;-5.30;99.90
57652;DHT22;43480;53.116;6.734;2022-12-18T04:07:02;-5.30;99.90
57652;DHT22;43480;53.116;6.734;2022-12-18T04:09:28;-5.30;99.90
57652;DHT22;43480;53.116;6.734;2022-12-18T04:11:55;-5.40;99.90
57652;DHT22;43480;53.116;6.734;2022-12-18T04:14:21;-5.40;99.90
57652;DHT22;43480;53.116;6.734;2022-12-18T04:16:46;-5.40;99.90
57652;DHT22;43480;53.116;6.734;2022-12-18T04:19:12;-5.40;99.90
57652;DHT22;43480;53.116;6.734;2022-12-18T04:21:37;-5.50;99.90
57652;DHT22;43480;53.116;6.734;2022-12-18T04:24:03;-5.50;99.90
57652;DHT22;43480;53.116;6.734;2022-12-18T04:26:29;-5.50;99.90
57652;DHT22;43480;53.116;6.734;2022-12-18T04:28:54;-5.50;99.90
57652;DHT22;43480;53.116;6.734;2022-12-18T04:31:20;-5.50;99.90
57652;DHT22;43480;53.116;6.734;2022-12-18T04:33:45;-5.50;99.90
57652;DHT22;43480;53.116;6.734;2022-12-18T04:36:11;-5.50;99.90
57652;DHT22;43480;53.116;6.734;2022-12-18T04:38:37;-5.50;99.90
57652;DHT22;43480;53.116;6.734;2022-12-18T04:41:03;-5.50;99.90
57652;DHT22;43480;53.116;6.734;2022-12-18T04:43:29;-5.50;99.90
57652;DHT22;43480;53.116;6.734;2022-12-18T04:46:00;-5.50;99.90
57652;DHT22;43480;53.116;6.734;2022-12-18T04:48:26;-5.50;99.90
57652;DHT22;43480;53.116;6.734;2022-12-18T04:50:52;-5.60;99.90
57652;DHT22;43480;53.116;6.734;2022-12-18T04:53:17;-5.60;99.90
57652;DHT22;43480;53.116;6.734;2022-12-18T04:55:43;-5.60;99.90
57652;DHT22;43480;53.116;6.734;2022-12-18T04:58:08;-5.60;99.90
57652;DHT22;43480;53.116;6.734;2022-12-18T05:00:34;-5.60;99.90
57652;DHT22;43480;53.116;6.734;2022-12-18T05:03:00;-5.60;99.90
57652;DHT22;43480;53.116;6.734;2022-12-18T05:05:26;-5.60;99.90
57652;DHT22;43480;53.116;6.734;2022-12-18T05:07:52;-5.60;99.90
57652;DHT22;43480;53.116;6.734;2022-12-18T05:10:17;-5.60;99.90
57652;DHT22;43480;53.116;6.734;2022-12-18T05:12:43;-5.60;99.90
57652;DHT22;43480;53.116;6.734;2022-12-18T05:15:30;-5.60;99.90
57652;DHT22;43480;53.116;6.734;2022-12-18T05:17:56;-5.60;99.90
57652;DHT22;43480;53.116;6.734;2022-12-18T05:20:22;-5.60;99.90
57652;DHT22;43480;53.116;6.734;2022-12-18T05:22:48;-5.60;99.90
57652;DHT22;43480;53.116;6.734;2022-12-18T05:25:14;-5.60;99.90
57652;DHT22;43480;53.116;6.734;2022-12-18T05:27:39;-5.70;99.90
57652;DHT22;43480;53.116;6.734;2022-12-18T05:30:05;-5.70;99.90
57652;DHT22;43480;53.116;6.734;2022-12-18T05:32:31;-5.70;99.90
57652;DHT22;43480;53.116;6.734;2022-12-18T05:34:56;-5.70;99.90
57652;DHT22;43480;53.116;6.734;2022-12-18T05:37:22;-5.70;99.90
57652;DHT22;43480;53.116;6.734;2022-12-18T05:39:48;-5.70;99.90
57652;DHT22;43480;53.116;6.734;2022-12-18T05:42:13;-5.80;99.90
57652;DHT22;43480;53.116;6.734;2022-12-18T05:44:39;-5.80;99.90
57652;DHT22;43480;53.116;6.734;2022-12-18T05:47:05;-5.80;99.90
57652;DHT22;43480;53.116;6.734;2022-12-18T05:49:31;-5.80;99.90
57652;DHT22;43480;53.116;6.734;2022-12-18T05:51:57;-5.80;99.90
57652;DHT22;43480;53.116;6.734;2022-12-18T05:54:22;-5.80;99.90
57652;DHT22;43480;53.116;6.734;2022-12-18T05:56:48;-5.80;99.90
57652;DHT22;43480;53.116;6.734;2022-12-18T05:59:13;-5.80;99.90
57652;DHT22;43480;53.116;6.734;2022-12-18T06:01:39;-5.80;99.90
57652;DHT22;43480;53.116;6.734;2022-12-18T06:04:05;-5.80;99.90
57652;DHT22;43480;53.116;6.734;2022-12-18T06:06:30;-5.80;99.90
57652;DHT22;43480;53.116;6.734;2022-12-18T06:08:56;-5.80;99.90
57652;DHT22;43480;53.116;6.734;2022-12-18T06:11:23;-5.80;99.90
57652;DHT22;43480;53.116;6.734;2022-12-18T06:13:49;-5.80;99.90
57652;DHT22;43480;53.116;6.734;2022-12-18T06:16:15;-5.80;99.90
57652;DHT22;43480;53.116;6.734;2022-12-18T06:18:41;-5.80;99.90
57652;DHT22;43480;53.116;6.734;2022-12-18T06:21:06;-5.80;99.90
57652;DHT22;43480;53.116;6.734;2022-12-18T06:23:32;-5.90;99.90
57652;DHT22;43480;53.116;6.734;2022-12-18T06:25:58;-5.90;99.90
57652;DHT22;43480;53.116;6.734;2022-12-18T06:28:24;-6.00;99.90
57652;DHT22;43480;53.116;6.734;2022-12-18T06:30:49;-5.90;99.90
57652;DHT22;43480;53.116;6.734;2022-12-18T06:33:15;-6.00;99.90
57652;DHT22;43480;53.116;6.734;2022-12-18T06:35:41;-6.00;99.90
57652;DHT22;43480;53.116;6.734;2022-12-18T06:38:07;-6.00;99.90
57652;DHT22;43480;53.116;6.734;2022-12-18T06:40:32;-6.00;99.90
57652;DHT22;43480;53.116;6.734;2022-12-18T06:42:58;-6.10;99.90
57652;DHT22;43480;53.116;6.734;2022-12-18T06:45:24;-6.00;99.90
57652;DHT22;43480;53.116;6.734;2022-12-18T06:47:49;-6.10;99.90
57652;DHT22;43480;53.116;6.734;2022-12-18T06:50:15;-6.10;99.90
57652;DHT22;43480;53.116;6.734;2022-12-18T06:52:41;-6.10;99.90
57652;DHT22;43480;53.116;6.734;2022-12-18T06:55:08;-6.10;99.90
57652;DHT22;43480;53.116;6.734;2022-12-18T06:57:33;-6.10;99.90
57652;DHT22;43480;53.116;6.734;2022-12-18T06:59:59;-6.10;99.90
57652;DHT22;43480;53.116;6.734;2022-12-18T07:02:25;-6.10;99.90
57652;DHT22;43480;53.116;6.734;2022-12-18T07:04:50;-6.10;99.90
57652;DHT22;43480;53.116;6.734;2022-12-18T07:07:16;-6.10;99.90
57652;DHT22;43480;53.116;6.734;2022-12-18T07:09:41;-6.10;99.90
57652;DHT22;43480;53.116;6.734;2022-12-18T07:12:07;-6.10;99.90
57652;DHT22;43480;53.116;6.734;2022-12-18T07:14:33;-6.20;99.90
57652;DHT22;43480;53.116;6.734;2022-12-18T07:16:59;-6.20;99.90
57652;DHT22;43480;53.116;6.734;2022-12-18T07:19:24;-6.20;99.90
57652;DHT22;43480;53.116;6.734;2022-12-18T07:21:50;-6.20;99.90
57652;DHT22;43480;53.116;6.734;2022-12-18T07:24:16;-6.20;99.90
57652;DHT22;43480;53.116;6.734;2022-12-18T07:26:41;-6.20;99.90
57652;DHT22;43480;53.116;6.734;2022-12-18T07:29:07;-6.30;99.90
57652;DHT22;43480;53.116;6.734;2022-12-18T07:31:33;-6.20;99.90
57652;DHT22;43480;53.116;6.734;2022-12-18T07:33:58;-6.20;99.90
57652;DHT22;43480;53.116;6.734;2022-12-18T07:36:24;-6.30;99.90
57652;DHT22;43480;53.116;6.734;2022-12-18T07:38:50;-6.30;99.90
57652;DHT22;43480;53.116;6.734;2022-12-18T07:41:17;-6.20;99.90
57652;DHT22;43480;53.116;6.734;2022-12-18T07:43:43;-6.20;99.90
57652;DHT22;43480;53.116;6.734;2022-12-18T07:46:09;-6.30;99.90
57652;DHT22;43480;53.116;6.734;2022-12-18T07:48:35;-6.30;99.90
57652;DHT22;43480;53.116;6.734;2022-12-18T07:51:02;-6.30;99.90
57652;DHT22;43480;53.116;6.734;2022-12-18T07:53:29;-6.30;99.90
57652;DHT22;43480;53.116;6.734;2022-12-18T07:55:58;-6.30;99.90
57652;DHT22;43480;53.116;6.734;2022-12-18T07:58:24;-6.30;99.90
57652;DHT22;43480;53.116;6.734;2022-12-18T08:00:50;-6.30;99.90
57652;DHT22;43480;53.116;6.734;2022-12-18T08:03:15;-6.20;99.90
57652;DHT22;43480;53.116;6.734;2022-12-18T08:05:41;-6.20;99.90
57652;DHT22;43480;53.116;6.734;2022-12-18T08:08:06;-6.10;99.90
57652;DHT22;43480;53.116;6.734;2022-12-18T08:10:32;-6.10;99.90
57652;DHT22;43480;53.116;6.734;2022-12-18T08:12:58;-6.10;99.90
57652;DHT22;43480;53.116;6.734;2022-12-18T08:15:23;-6.10;99.90
57652;DHT22;43480;53.116;6.734;2022-12-18T08:17:49;-6.00;99.90
57652;DHT22;43480;53.116;6.734;2022-12-18T08:20:14;-6.00;99.90
57652;DHT22;43480;53.116;6.734;2022-12-18T08:22:41;-5.90;99.90
57652;DHT22;43480;53.116;6.734;2022-12-18T08:25:06;-5.80;99.90
57652;DHT22;43480;53.116;6.734;2022-12-18T08:27:32;-5.80;99.90
57652;DHT22;43480;53.116;6.734;2022-12-18T08:29:58;-5.70;99.90
57652;DHT22;43480;53.116;6.734;2022-12-18T08:32:24;-5.60;99.90
57652;DHT22;43480;53.116;6.734;2022-12-18T08:34:49;-5.50;99.90
57652;DHT22;43480;53.116;6.734;2022-12-18T08:37:15;-5.40;99.90
57652;DHT22;43480;53.116;6.734;2022-12-18T08:39:40;-5.30;99.90
57652;DHT22;43480;53.116;6.734;2022-12-18T08:42:06;-5.30;99.90
57652;DHT22;43480;53.116;6.734;2022-12-18T08:44:50;-5.20;99.90
57652;DHT22;43480;53.116;6.734;2022-12-18T08:47:16;-5.20;99.90
57652;DHT22;43480;53.116;6.734;2022-12-18T08:49:41;-5.10;99.90
57652;DHT22;43480;53.116;6.734;2022-12-18T08:52:07;-5.10;99.90
57652;DHT22;43480;53.116;6.734;2022-12-18T08:54:32;-5.00;99.90
57652;DHT22;43480;53.116;6.734;2022-12-18T08:56:58;-5.00;99.90
57652;DHT22;43480;53.116;6.734;2022-12-18T08:59:23;-4.90;99.90
57652;DHT22;43480;53.116;6.734;2022-12-18T09:01:49;-4.90;99.90
57652;DHT22;43480;53.116;6.734;2022-12-18T09:04:14;-4.90;99.90
57652;DHT22;43480;53.116;6.734;2022-12-18T09:06:40;-4.80;99.90
57652;DHT22;43480;53.116;6.734;2022-12-18T09:09:06;-4.80;99.90
57652;DHT22;43480;53.116;6.734;2022-12-18T09:11:31;-4.70;99.90
57652;DHT22;43480;53.116;6.734;2022-12-18T09:13:57;-4.60;99.90
57652;DHT22;43480;53.116;6.734;2022-12-18T09:16:24;-4.60;99.90
57652;DHT22;43480;53.116;6.734;2022-12-18T09:18:50;-4.50;99.90
57652;DHT22;43480;53.116;6.734;2022-12-18T09:21:19;-4.40;99.90
57652;DHT22;43480;53.116;6.734;2022-12-18T09:23:49;-4.40;99.90
57652;DHT22;43480;53.116;6.734;2022-12-18T09:26:15;-4.30;99.90
57652;DHT22;43480;53.116;6.734;2022-12-18T09:28:40;-4.20;99.90
57652;DHT22;43480;53.116;6.734;2022-12-18T09:31:07;-4.20;99.90
57652;DHT22;43480;53.116;6.734;2022-12-18T09:33:33;-4.10;99.90
57652;DHT22;43480;53.116;6.734;2022-12-18T09:36:00;-4.00;99.90
57652;DHT22;43480;53.116;6.734;2022-12-18T09:38:26;-3.90;99.90
57652;DHT22;43480;53.116;6.734;2022-12-18T09:40:53;-3.90;99.90
57652;DHT22;43480;53.116;6.734;2022-12-18T09:43:33;-3.80;99.90
57652;DHT22;43480;53.116;6.734;2022-12-18T09:46:02;-3.70;99.90
57652;DHT22;43480;53.116;6.734;2022-12-18T09:48:34;-3.60;99.90
57652;DHT22;43480;53.116;6.734;2022-12-18T09:51:02;-3.50;99.90
57652;DHT22;43480;53.116;6.734;2022-12-18T09:53:30;-3.40;99.90
57652;DHT22;43480;53.116;6.734;2022-12-18T09:55:56;-3.30;99.90
57652;DHT22;43480;53.116;6.734;2022-12-18T09:58:36;-3.30;99.90
57652;DHT22;43480;53.116;6.734;2022-12-18T10:01:09;-3.20;99.90
57652;DHT22;43480;53.116;6.734;2022-12-18T10:03:35;-3.20;99.90
57652;DHT22;43480;53.116;6.734;2022-12-18T10:11:01;-3.30;99.90
57652;DHT22;43480;53.116;6.734;2022-12-18T10:18:42;-3.30;99.90
57652;DHT22;43480;53.116;6.734;2022-12-18T10:21:19;-3.30;99.90
57652;DHT22;43480;53.116;6.734;2022-12-18T10:23:51;-3.30;99.90
57652;DHT22;43480;53.116;6.734;2022-12-18T10:26:19;-3.30;99.90
57652;DHT22;43480;53.116;6.734;2022-12-18T10:28:44;-3.20;99.90
57652;DHT22;43480;53.116;6.734;2022-12-18T10:31:17;-3.10;99.90
57652;DHT22;43480;53.116;6.734;2022-12-18T10:33:43;-3.10;99.90
57652;DHT22;43480;53.116;6.734;2022-12-18T10:36:09;-3.00;99.90
57652;DHT22;43480;53.116;6.734;2022-12-18T10:38:35;-2.90;99.90
57652;DHT22;43480;53.116;6.734;2022-12-18T10:41:05;-2.90;99.90
57652;DHT22;43480;53.116;6.734;2022-12-18T10:43:34;-2.90;99.90
57652;DHT22;43480;53.116;6.734;2022-12-18T10:48:26;-2.80;99.90
57652;DHT22;43480;53.116;6.734;2022-12-18T10:50:52;-2.70;99.90
57652;DHT22;43480;53.116;6.734;2022-12-18T10:53:28;-2.60;99.90
57652;DHT22;43480;53.116;6.734;2022-12-18T10:55:54;-2.60;99.90
57652;DHT22;43480;53.116;6.734;2022-12-18T11:01:01;-2.50;99.90
57652;DHT22;43480;53.116;6.734;2022-12-18T11:04:01;-2.40;99.90
57652;DHT22;43480;53.116;6.734;2022-12-18T11:06:20;-2.30;99.90
57652;DHT22;43480;53.116;6.734;2022-12-18T11:09:05;-2.30;99.90
57652;DHT22;43480;53.116;6.734;2022-12-18T11:11:33;-2.20;99.90
57652;DHT22;43480;53.116;6.734;2022-12-18T11:14:03;-2.10;99.90
57652;DHT22;43480;53.116;6.734;2022-12-18T11:16:30;-2.10;99.90
57652;DHT22;43480;53.116;6.734;2022-12-18T11:19:08;-2.00;99.90
57652;DHT22;43480;53.116;6.734;2022-12-18T11:21:39;-2.00;99.90
57652;DHT22;43480;53.116;6.734;2022-12-18T11:24:05;-2.00;99.90
57652;DHT22;43480;53.116;6.734;2022-12-18T11:26:33;-1.90;99.90
57652;DHT22;43480;53.116;6.734;2022-12-18T11:29:09;-1.80;99.90
57652;DHT22;43480;53.116;6.734;2022-12-18T11:31:35;-1.80;99.90
57652;DHT22;43480;53.116;6.734;2022-12-18T11:34:02;-1.80;99.90
57652;DHT22;43480;53.116;6.734;2022-12-18T11:36:34;-1.80;99.90
57652;DHT22;43480;53.116;6.734;2022-12-18T11:39:04;-1.70;99.90
57652;DHT22;43480;53.116;6.734;2022-12-18T11:41:36;-1.70;99.90
57652;DHT22;43480;53.116;6.734;2022-12-18T11:44:24;-1.60;99.90
57652;DHT22;43480;53.116;6.734;2022-12-18T11:46:53;-1.60;99.90
57652;DHT22;43480;53.116;6.734;2022-12-18T11:49:22;-1.60;99.90
57652;DHT22;43480;53.116;6.734;2022-12-18T11:51:51;-1.50;99.90
57652;DHT22;43480;53.116;6.734;2022-12-18T11:54:20;-1.50;99.90
57652;DHT22;43480;53.116;6.734;2022-12-18T11:56:47;-1.50;99.90
57652;DHT22;43480;53.116;6.734;2022-12-18T12:01:51;-1.40;99.90
57652;DHT22;43480;53.116;6.734;2022-12-18T12:30:18;-1.20;99.90
57652;DHT22;43480;53.116;6.734;2022-12-18T12:38:13;-1.10;99.90
57652;DHT22;43480;53.116;6.734;2022-12-18T12:40:51;-1.10;99.90
57652;DHT22;43480;53.116;6.734;2022-12-18T12:43:22;-1.10;99.90
57652;DHT22;43480;53.116;6.734;2022-12-18T12:48:44;-1.00;99.90
57652;DHT22;43480;53.116;6.734;2022-12-18T12:51:18;-1.00;99.90
57652;DHT22;43480;53.116;6.734;2022-12-18T12:53:45;-1.00;99.90
57652;DHT22;43480;53.116;6.734;2022-12-18T12:56:11;-0.90;99.90
57652;DHT22;43480;53.116;6.734;2022-12-18T13:01:23;-0.90;99.90
57652;DHT22;43480;53.116;6.734;2022-12-18T13:06:23;-0.90;99.90
57652;DHT22;43480;53.116;6.734;2022-12-18T13:08:54;-0.80;99.90
57652;DHT22;43480;53.116;6.734;2022-12-18T13:12:03;-0.80;99.90
57652;DHT22;43480;53.116;6.734;2022-12-18T13:14:32;-0.70;99.90
57652;DHT22;43480;53.116;6.734;2022-12-18T13:22:30;-0.70;99.90
57652;DHT22;43480;53.116;6.734;2022-12-18T13:24:56;-0.70;99.90
57652;DHT22;43480;53.116;6.734;2022-12-18T13:32:57;-0.70;99.90
57652;DHT22;43480;53.116;6.734;2022-12-18T13:35:39;-0.70;99.90
57652;DHT22;43480;53.116;6.734;2022-12-18T13:48:14;-0.70;99.90
57652;DHT22;43480;53.116;6.734;2022-12-18T13:50:40;-0.70;99.90
57652;DHT22;43480;53.116;6.734;2022-12-18T13:53:06;-0.70;99.90
57652;DHT22;43480;53.116;6.734;2022-12-18T13:55:32;-0.70;99.90
57652;DHT22;43480;53.116;6.734;2022-12-18T13:58:04;-0.70;99.90
57652;DHT22;43480;53.116;6.734;2022-12-18T14:00:30;-0.80;99.90
57652;DHT22;43480;53.116;6.734;2022-12-18T14:02:56;-0.70;99.90
57652;DHT22;43480;53.116;6.734;2022-12-18T14:07:51;-0.80;99.90
57652;DHT22;43480;53.116;6.734;2022-12-18T14:10:17;-0.80;99.90
57652;DHT22;43480;53.116;6.734;2022-12-18T14:12:47;-0.80;99.90
57652;DHT22;43480;53.116;6.734;2022-12-18T14:17:57;-0.90;99.90
57652;DHT22;43480;53.116;6.734;2022-12-18T14:20:27;-0.90;99.90
57652;DHT22;43480;53.116;6.734;2022-12-18T14:22:53;-0.80;99.90
57652;DHT22;43480;53.116;6.734;2022-12-18T14:25:30;-0.90;99.90
57652;DHT22;43480;53.116;6.734;2022-12-18T14:28:04;-0.90;99.90
57652;DHT22;43480;53.116;6.734;2022-12-18T14:30:39;-1.00;99.90
57652;DHT22;43480;53.116;6.734;2022-12-18T14:33:15;-1.00;99.90
57652;DHT22;43480;53.116;6.734;2022-12-18T14:35:42;-1.00;99.90
57652;DHT22;43480;53.116;6.734;2022-12-18T14:40:53;-1.10;99.90
57652;DHT22;43480;53.116;6.734;2022-12-18T14:43:19;-1.10;99.90
57652;DHT22;43480;53.116;6.734;2022-12-18T14:45:45;-1.20;99.90
57652;DHT22;43480;53.116;6.734;2022-12-18T14:48:14;-1.20;99.90
57652;DHT22;43480;53.116;6.734;2022-12-18T14:50:40;-1.20;99.90
57652;DHT22;43480;53.116;6.734;2022-12-18T14:53:15;-1.20;99.90
57652;DHT22;43480;53.116;6.734;2022-12-18T14:55:44;-1.20;99.90
57652;DHT22;43480;53.116;6.734;2022-12-18T14:58:10;-1.20;99.90
57652;DHT22;43480;53.116;6.734;2022-12-18T15:00:40;-1.20;99.90
57652;DHT22;43480;53.116;6.734;2022-12-18T15:03:06;-1.20;99.90
57652;DHT22;43480;53.116;6.734;2022-12-18T15:05:33;-1.20;99.90
57652;DHT22;43480;53.116;6.734;2022-12-18T15:07:59;-1.20;99.90
57652;DHT22;43480;53.116;6.734;2022-12-18T15:10:26;-1.30;99.90
57652;DHT22;43480;53.116;6.734;2022-12-18T15:20:27;-1.30;99.90
57652;DHT22;43480;53.116;6.734;2022-12-18T15:22:53;-1.40;99.90
57652;DHT22;43480;53.116;6.734;2022-12-18T15:25:36;-1.30;99.90
57652;DHT22;43480;53.116;6.734;2022-12-18T15:28:03;-1.40;99.90
57652;DHT22;43480;53.116;6.734;2022-12-18T15:30:29;-1.40;99.90
57652;DHT22;43480;53.116;6.734;2022-12-18T15:35:38;-1.40;99.90
57652;DHT22;43480;53.116;6.734;2022-12-18T15:38:04;-1.40;99.90
57652;DHT22;43480;53.116;6.734;2022-12-18T15:40:29;-1.50;99.90
57652;DHT22;43480;53.116;6.734;2022-12-18T15:42:55;-1.50;99.90
57652;DHT22;43480;53.116;6.734;2022-12-18T15:45:40;-1.50;99.90
57652;DHT22;43480;53.116;6.734;2022-12-18T15:48:18;-1.50;99.90
57652;DHT22;43480;53.116;6.734;2022-12-18T15:50:44;-1.50;99.90
57652;DHT22;43480;53.116;6.734;2022-12-18T15:53:10;-1.50;99.90
57652;DHT22;43480;53.116;6.734;2022-12-18T15:55:35;-1.50;99.90
57652;DHT22;43480;53.116;6.734;2022-12-18T15:58:20;-1.50;99.90
57652;DHT22;43480;53.116;6.734;2022-12-18T16:00:46;-1.50;99.90
57652;DHT22;43480;53.116;6.734;2022-12-18T16:03:11;-1.50;99.90
57652;DHT22;43480;53.116;6.734;2022-12-18T16:05:37;-1.50;99.90
57652;DHT22;43480;53.116;6.734;2022-12-18T16:08:02;-1.50;99.90
57652;DHT22;43480;53.116;6.734;2022-12-18T16:10:28;-1.50;99.90
57652;DHT22;43480;53.116;6.734;2022-12-18T16:12:54;-1.50;99.90
57652;DHT22;43480;53.116;6.734;2022-12-18T16:15:19;-1.50;99.90
57652;DHT22;43480;53.116;6.734;2022-12-18T16:17:45;-1.50;99.90
57652;DHT22;43480;53.116;6.734;2022-12-18T16:20:12;-1.50;99.90
57652;DHT22;43480;53.116;6.734;2022-12-18T16:22:38;-1.50;99.90
57652;DHT22;43480;53.116;6.734;2022-12-18T16:25:03;-1.50;99.90
57652;DHT22;43480;53.116;6.734;2022-12-18T16:27:30;-1.50;99.90
57652;DHT22;43480;53.116;6.734;2022-12-18T16:29:56;-1.50;99.90
57652;DHT22;43480;53.116;6.734;2022-12-18T16:32:21;-1.50;99.90
57652;DHT22;43480;53.116;6.734;2022-12-18T16:34:47;-1.50;99.90
57652;DHT22;43480;53.116;6.734;2022-12-18T16:37:14;-1.50;99.90
57652;DHT22;43480;53.116;6.734;2022-12-18T16:39:40;-1.40;99.90
57652;DHT22;43480;53.116;6.734;2022-12-18T16:42:09;-1.50;99.90
57652;DHT22;43480;53.116;6.734;2022-12-18T16:44:35;-1.50;99.90
57652;DHT22;43480;53.116;6.734;2022-12-18T16:47:00;-1.50;99.90
57652;DHT22;43480;53.116;6.734;2022-12-18T16:49:27;-1.50;99.90
57652;DHT22;43480;53.116;6.734;2022-12-18T16:51:53;-1.40;99.90
57652;DHT22;43480;53.116;6.734;2022-12-18T16:54:19;-1.50;99.90
57652;DHT22;43480;53.116;6.734;2022-12-18T16:56:45;-1.40;99.90
57652;DHT22;43480;53.116;6.734;2022-12-18T16:59:14;-1.40;99.90
57652;DHT22;43480;53.116;6.734;2022-12-18T17:01:40;-1.40;99.90
57652;DHT22;43480;53.116;6.734;2022-12-18T17:04:06;-1.40;99.90
57652;DHT22;43480;53.116;6.734;2022-12-18T17:06:32;-1.30;99.90
57652;DHT22;43480;53.116;6.734;2022-12-18T17:08:58;-1.40;99.90
57652;DHT22;43480;53.116;6.734;2022-12-18T17:11:26;-1.30;99.90
57652;DHT22;43480;53.116;6.734;2022-12-18T17:13:52;-1.30;99.90
57652;DHT22;43480;53.116;6.734;2022-12-18T17:16:18;-1.30;99.90
57652;DHT22;43480;53.116;6.734;2022-12-18T17:18:43;-1.30;99.90
57652;DHT22;43480;53.116;6.734;2022-12-18T17:21:10;-1.20;99.90
57652;DHT22;43480;53.116;6.734;2022-12-18T17:23:36;-1.20;99.90
57652;DHT22;43480;53.116;6.734;2022-12-18T17:26:02;-1.20;99.90